Svitzer Stanlow — MLNF7 — position and weather

sailwx.info

Track history (hours):
 
Tides and Currents Weather Stations Pressure Air Temp Water Temp Dewpoint Dewpoint Depression Visibility Wind Speed Wind Dir Waves Ship Positions

Svitzer Stanlow

Last reported at 2014-Nov-24 14:30 UTC. Time now 2014-Nov-24 14:54 UTC.
Position N 53°23' W 003°00'.

Length 39 m.

Type: Tug. MMSI: 235010620.

Date/timePositionNaut miles runAvg speedWind from/ knotsBaromVisibWave heightAir tempDewpointWater temp
2014-Nov-24 14:30N 53°23' W 003°00'0 0.0
2014-Nov-24 13:23N 53°23' W 003°00'0 0.0
2014-Nov-24 12:23N 53°23' W 003°00'0 0.0
2014-Nov-24 11:29N 53°23' W 003°00'0 0.0
2014-Nov-24 10:29N 53°23' W 003°00'0 0.0
2014-Nov-24 09:29N 53°23' W 003°00'0 0.0
2014-Nov-24 08:29N 53°23' W 003°00'0 0.0
2014-Nov-24 07:29N 53°23' W 003°00'0 0.0
2014-Nov-24 06:29N 53°23' W 003°00'0 0.0
2014-Nov-24 05:29N 53°23' W 003°00'0 0.0
2014-Nov-24 04:23N 53°23' W 003°00'0 0.0
2014-Nov-24 03:29N 53°23' W 003°00'0 0.0
2014-Nov-24 02:29N 53°23' W 003°00'0 0.0
2014-Nov-24 01:29N 53°23' W 003°00'0 0.0
2014-Nov-24 00:29N 53°23' W 003°00'0 0.0
2014-Nov-23 23:29N 53°23' W 003°00'0 0.0
2014-Nov-23 22:29N 53°23' W 003°00'0 0.0
2014-Nov-23 21:29N 53°23' W 003°00'0 0.0
2014-Nov-23 20:29N 53°23' W 003°00'0 0.0
2014-Nov-23 19:29N 53°23' W 003°00'0 0.0
2014-Nov-23 18:29N 53°23' W 003°00'0 0.0
2014-Nov-23 17:29N 53°23' W 003°00'0 0.0
2014-Nov-23 16:29N 53°23' W 003°00'0 0.0
2014-Nov-23 15:29N 53°23' W 003°00'0 0.0
2014-Nov-23 14:29N 53°23' W 003°00'0 0.0
2014-Nov-23 13:29N 53°23' W 003°00'0 0.0
2014-Nov-23 12:29N 53°23' W 003°00'0 0.0
2014-Nov-23 11:29N 53°23' W 003°00'0 0.0
2014-Nov-23 10:29N 53°23' W 003°00'0 0.0
2014-Nov-23 09:29N 53°23' W 003°00'0 0.0
2014-Nov-23 08:29N 53°23' W 003°00'0 0.0
2014-Nov-23 07:23N 53°23' W 003°00'0 0.0
2014-Nov-23 06:29N 53°23' W 003°00'0 0.0
2014-Nov-23 05:29N 53°23' W 003°00'0 0.0
2014-Nov-23 04:28N 53°23' W 003°00'0 0.0
2014-Nov-23 03:28N 53°23' W 003°00'0 0.0
2014-Nov-23 02:28N 53°23' W 003°00'0 0.0
2014-Nov-23 01:28N 53°23' W 003°00'0 0.0
2014-Nov-23 00:28N 53°23' W 003°00'0 0.0
2014-Nov-22 23:28N 53°23' W 003°00'0 0.0
2014-Nov-22 22:28N 53°23' W 003°00'0 0.0
2014-Nov-22 21:28N 53°23' W 003°00'0 0.0
2014-Nov-22 20:28N 53°23' W 003°00'0 0.0
2014-Nov-22 19:28N 53°23' W 003°00'0 0.0
2014-Nov-22 18:28N 53°23' W 003°00'0 0.0
2014-Nov-22 17:22N 53°23' W 003°00'0 0.0
2014-Nov-22 16:28N 53°23' W 003°00'0 0.0
2014-Nov-22 15:22N 53°23' W 003°00'0 0.0
2014-Nov-22 14:28N 53°23' W 003°00'0 0.0
2014-Nov-22 13:28N 53°23' W 003°00'0 0.0
2014-Nov-22 12:28N 53°23' W 003°00'0 0.0
2014-Nov-22 11:28N 53°23' W 003°00'0 0.0
2014-Nov-22 10:22N 53°23' W 003°00'0 0.0
2014-Nov-22 09:28N 53°23' W 003°00'4 4.2
2014-Nov-22 08:33N 53°27' W 003°01'2 2.0
2014-Nov-22 07:33N 53°25' W 003°00'2 1.7
2014-Nov-22 06:29N 53°23' W 003°00'0 0.0
2014-Nov-22 05:29N 53°23' W 003°00'0 0.0
2014-Nov-22 04:29N 53°23' W 003°00'0 0.0
2014-Nov-22 03:29N 53°23' W 003°00'0 0.0
2014-Nov-22 02:29N 53°23' W 003°00'0 0.0
2014-Nov-22 01:11N 53°23' W 003°00'0 0.0
2014-Nov-22 00:22N 53°23' W 003°00'0 0.0
2014-Nov-21 23:28N 53°23' W 003°00'4 3.6
2014-Nov-21 22:27N 53°20' W 002°57'4 3.8
2014-Nov-21 21:29N 53°23' W 003°00'0 0.0
2014-Nov-21 20:23N 53°23' W 003°00'0 0.0
2014-Nov-21 19:29N 53°23' W 003°00'0 0.0
2014-Nov-21 18:29N 53°23' W 003°00'0 0.0
2014-Nov-21 17:29N 53°23' W 003°00'0 0.0
2014-Nov-21 16:29N 53°23' W 003°00'0 0.0
2014-Nov-21 15:29N 53°23' W 003°00'0 0.0
2014-Nov-21 14:29N 53°23' W 003°00'0 0.0
2014-Nov-21 13:29N 53°23' W 003°00'0 0.0
2014-Nov-21 12:29N 53°23' W 003°00'0 0.3
2014-Nov-21 11:32N 53°23' W 002°60'0 0.2
2014-Nov-21 10:33N 53°23' W 002°60'4 3.5
2014-Nov-21 09:34N 53°26' W 003°01'9 4.1
2014-Nov-21 07:27N 53°31' W 003°13'7 8.1
2014-Nov-21 06:33N 53°27' W 003°02'5 4.7
2014-Nov-21 05:31N 53°23' W 002°60'0 0.1
2014-Nov-21 04:29N 53°23' W 002°60'0 0.0
2014-Nov-21 03:29N 53°23' W 002°60'0 0.0
2014-Nov-21 02:11N 53°23' W 002°60'0 0.0
2014-Nov-21 01:23N 53°23' W 002°60'0 0.0
2014-Nov-21 00:23N 53°23' W 002°60'0 0.0
2014-Nov-20 23:29N 53°23' W 002°60'0 0.0
2014-Nov-20 22:29N 53°23' W 002°60'0 0.0
2014-Nov-20 21:29N 53°23' W 002°60'0 0.0
2014-Nov-20 20:23N 53°23' W 002°60'0 0.0
2014-Nov-20 19:23N 53°23' W 002°60'0 0.0
2014-Nov-20 18:05N 53°23' W 002°60'0 0.0
2014-Nov-20 17:29N 53°23' W 002°60'0 0.0
2014-Nov-20 16:17N 53°23' W 002°60'0 0.0
2014-Nov-20 09:29N 53°23' W 002°60'0 0.0
2014-Nov-20 08:17N 53°23' W 002°60'0 0.0
2014-Nov-20 07:23N 53°23' W 002°60'0 0.0
2014-Nov-20 06:17N 53°23' W 002°60'0 0.0
2014-Nov-20 05:17N 53°23' W 002°60'0 0.0
2014-Nov-20 04:29N 53°23' W 002°60'0 0.0
2014-Nov-20 03:29N 53°23' W 002°60'0 0.0
2014-Nov-20 02:29N 53°23' W 002°60'0 0.0
2014-Nov-20 01:28N 53°23' W 002°60'0 0.0
2014-Nov-20 00:16N 53°23' W 002°60'0 0.0
2014-Nov-19 23:28N 53°23' W 002°60'0 0.0
2014-Nov-19 22:28N 53°23' W 002°60'0 0.3
2014-Nov-19 21:31N 53°23' W 003°00'2 1.7
2014-Nov-19 20:33N 53°25' W 003°01'9 9.0
2014-Nov-19 19:32N 53°32' W 003°10'0 0.3
2014-Nov-19 18:30N 53°32' W 003°11'8 8.8
2014-Nov-19 17:33N 53°26' W 003°01'3 2.6
2014-Nov-19 16:26N 53°23' W 002°60'0 0.0
2014-Nov-19 13:16N 53°23' W 002°60'1 0.9
2014-Nov-19 12:33N 53°23' W 003°00'1 0.3
2014-Nov-19 10:11N 53°23' W 002°60'0 0.0
2014-Nov-19 09:23N 53°23' W 002°60'0 0.0
2014-Nov-19 08:29N 53°23' W 002°60'0 0.0
2014-Nov-19 07:23N 53°23' W 002°60'0 0.0
2014-Nov-19 06:17N 53°23' W 002°60'0 0.0
2014-Nov-19 00:29N 53°23' W 002°60'0 0.0
2014-Nov-18 23:23N 53°23' W 002°60'0 0.0
2014-Nov-18 22:23N 53°23' W 002°60'0 0.0
2014-Nov-18 21:29N 53°23' W 002°60'0 0.0
2014-Nov-18 20:23N 53°23' W 002°60'0 0.0
2014-Nov-18 19:11N 53°23' W 002°60'0 0.0
2014-Nov-18 18:29N 53°23' W 002°60'0 0.0
2014-Nov-18 08:32N 53°23' W 003°00'5 5.0
2014-Nov-18 07:33N 53°28' W 003°03'9 8.7
2014-Nov-18 06:30N 53°31' W 003°17'2 2.4
2014-Nov-18 05:28N 53°31' W 003°13'8 8.6
2014-Nov-18 04:33N 53°27' W 003°02'4 3.2
2014-Nov-18 03:13N 53°23' W 002°60'0 0.0
2014-Nov-17 23:29N 53°23' W 002°60'0 0.0
2014-Nov-16 19:16N 53°23' W 002°60'1 0.8
2014-Nov-16 18:25N 53°23' W 003°00'6 7.2
2014-Nov-16 17:33N 53°29' W 003°05'8 8.1
2014-Nov-16 16:31N 53°31' W 003°18'6 6.7
2014-Nov-16 15:33N 53°31' W 003°07'6 5.6
2014-Nov-16 14:24N 53°26' W 003°01'1 1.1
2014-Nov-16 13:31N 53°25' W 003°00'0 0.0
2014-Nov-16 12:31N 53°25' W 003°00'0 0.0
2014-Nov-16 11:25N 53°25' W 003°00'0 0.0
2014-Nov-16 10:25N 53°25' W 003°00'0 0.0
2014-Nov-16 09:31N 53°25' W 003°00'0 0.0
2014-Nov-16 08:30N 53°25' W 003°00'0 0.0
2014-Nov-16 07:24N 53°25' W 003°00'0 0.0
2014-Nov-16 06:30N 53°25' W 003°00'0 0.0
2014-Nov-16 05:30N 53°25' W 003°00'0 0.0
2014-Nov-16 04:30N 53°25' W 003°00'0 0.0
2014-Nov-16 03:30N 53°25' W 003°00'0 0.0
2014-Nov-16 02:30N 53°25' W 003°00'0 0.0
2014-Nov-16 01:30N 53°25' W 003°00'0 0.0
2014-Nov-16 00:30N 53°25' W 003°00'0 0.0
2014-Nov-15 23:30N 53°25' W 003°00'0 0.0
2014-Nov-15 22:24N 53°25' W 003°00'0 0.0
2014-Nov-15 21:30N 53°25' W 003°00'0 0.0
2014-Nov-15 20:30N 53°25' W 003°00'0 0.0
2014-Nov-15 19:30N 53°25' W 003°00'0 0.0
2014-Nov-15 18:30N 53°25' W 003°00'0 0.0
2014-Nov-15 17:24N 53°25' W 003°00'0 0.0
2014-Nov-15 16:24N 53°25' W 003°00'0 0.0
2014-Nov-15 15:30N 53°25' W 003°00'0 0.0
2014-Nov-15 14:30N 53°25' W 003°00'0 0.0
2014-Nov-15 13:30N 53°25' W 003°00'0 0.0
2014-Nov-15 12:30N 53°25' W 003°00'0 0.0
2014-Nov-15 11:30N 53°25' W 003°00'0 0.0
2014-Nov-15 10:30N 53°25' W 003°00'0 0.0
2014-Nov-15 09:30N 53°25' W 003°00'0 0.0
2014-Nov-15 08:24N 53°25' W 003°00'0 0.0
2014-Nov-15 07:30N 53°25' W 003°00'0 0.0
2014-Nov-15 06:30N 53°25' W 003°00'0 0.0
2014-Nov-15 05:30N 53°25' W 003°00'0 0.0
2014-Nov-15 04:30N 53°25' W 003°00'0 0.0
2014-Nov-15 03:30N 53°25' W 003°00'0 0.0
2014-Nov-15 02:30N 53°25' W 003°00'0 0.0
2014-Nov-15 01:30N 53°25' W 003°00'0 0.0
2014-Nov-15 00:30N 53°25' W 003°00'0 0.0
2014-Nov-14 23:29N 53°25' W 003°00'0 0.0
2014-Nov-14 22:29N 53°25' W 003°00'0 0.0
2014-Nov-14 21:29N 53°25' W 003°00'0 0.0
2014-Nov-14 20:29N 53°25' W 003°00'0 0.0
2014-Nov-14 19:29N 53°25' W 003°00'0 0.0
2014-Nov-14 18:29N 53°25' W 003°00'0 0.0
2014-Nov-14 17:29N 53°25' W 003°00'0 0.0
2014-Nov-14 16:23N 53°25' W 003°00'0 0.0
2014-Nov-14 15:31N 53°25' W 003°00'  
Track history (hours):
 
Tides and Currents Weather Stations Pressure Air Temp Water Temp Dewpoint Dewpoint Depression Visibility Wind Speed Wind Dir Waves Ship Positions

Svitzer Stanlow

Last reported at 2014-Nov-24 14:30 UTC. Time now 2014-Nov-24 14:54 UTC.
Position N 53°23' W 003°00'.

Length 39 m.

Type: Tug. MMSI: 235010620.

Date/timePositionNaut miles runAvg speedWind from/ knotsBaromVisibWave heightAir tempDewpointWater temp
2014-Nov-24 14:30N 53°23' W 003°00'0 0.0
2014-Nov-24 13:23N 53°23' W 003°00'0 0.0
2014-Nov-24 12:23N 53°23' W 003°00'0 0.0
2014-Nov-24 11:29N 53°23' W 003°00'0 0.0
2014-Nov-24 10:29N 53°23' W 003°00'0 0.0
2014-Nov-24 09:29N 53°23' W 003°00'0 0.0
2014-Nov-24 08:29N 53°23' W 003°00'0 0.0
2014-Nov-24 07:29N 53°23' W 003°00'0 0.0
2014-Nov-24 06:29N 53°23' W 003°00'0 0.0
2014-Nov-24 05:29N 53°23' W 003°00'0 0.0
2014-Nov-24 04:23N 53°23' W 003°00'0 0.0
2014-Nov-24 03:29N 53°23' W 003°00'0 0.0
2014-Nov-24 02:29N 53°23' W 003°00'0 0.0
2014-Nov-24 01:29N 53°23' W 003°00'0 0.0
2014-Nov-24 00:29N 53°23' W 003°00'0 0.0
2014-Nov-23 23:29N 53°23' W 003°00'0 0.0
2014-Nov-23 22:29N 53°23' W 003°00'0 0.0
2014-Nov-23 21:29N 53°23' W 003°00'0 0.0
2014-Nov-23 20:29N 53°23' W 003°00'0 0.0
2014-Nov-23 19:29N 53°23' W 003°00'0 0.0
2014-Nov-23 18:29N 53°23' W 003°00'0 0.0
2014-Nov-23 17:29N 53°23' W 003°00'0 0.0
2014-Nov-23 16:29N 53°23' W 003°00'0 0.0
2014-Nov-23 15:29N 53°23' W 003°00'0 0.0
2014-Nov-23 14:29N 53°23' W 003°00'0 0.0
2014-Nov-23 13:29N 53°23' W 003°00'0 0.0
2014-Nov-23 12:29N 53°23' W 003°00'0 0.0
2014-Nov-23 11:29N 53°23' W 003°00'0 0.0
2014-Nov-23 10:29N 53°23' W 003°00'0 0.0
2014-Nov-23 09:29N 53°23' W 003°00'0 0.0
2014-Nov-23 08:29N 53°23' W 003°00'0 0.0
2014-Nov-23 07:23N 53°23' W 003°00'0 0.0
2014-Nov-23 06:29N 53°23' W 003°00'0 0.0
2014-Nov-23 05:29N 53°23' W 003°00'0 0.0
2014-Nov-23 04:28N 53°23' W 003°00'0 0.0
2014-Nov-23 03:28N 53°23' W 003°00'0 0.0
2014-Nov-23 02:28N 53°23' W 003°00'0 0.0
2014-Nov-23 01:28N 53°23' W 003°00'0 0.0
2014-Nov-23 00:28N 53°23' W 003°00'0 0.0
2014-Nov-22 23:28N 53°23' W 003°00'0 0.0
2014-Nov-22 22:28N 53°23' W 003°00'0 0.0
2014-Nov-22 21:28N 53°23' W 003°00'0 0.0
2014-Nov-22 20:28N 53°23' W 003°00'0 0.0
2014-Nov-22 19:28N 53°23' W 003°00'0 0.0
2014-Nov-22 18:28N 53°23' W 003°00'0 0.0
2014-Nov-22 17:22N 53°23' W 003°00'0 0.0
2014-Nov-22 16:28N 53°23' W 003°00'0 0.0
2014-Nov-22 15:22N 53°23' W 003°00'0 0.0
2014-Nov-22 14:28N 53°23' W 003°00'0 0.0
2014-Nov-22 13:28N 53°23' W 003°00'0 0.0
2014-Nov-22 12:28N 53°23' W 003°00'0 0.0
2014-Nov-22 11:28N 53°23' W 003°00'0 0.0
2014-Nov-22 10:22N 53°23' W 003°00'0 0.0
2014-Nov-22 09:28N 53°23' W 003°00'4 4.2
2014-Nov-22 08:33N 53°27' W 003°01'2 2.0
2014-Nov-22 07:33N 53°25' W 003°00'2 1.7
2014-Nov-22 06:29N 53°23' W 003°00'0 0.0
2014-Nov-22 05:29N 53°23' W 003°00'0 0.0
2014-Nov-22 04:29N 53°23' W 003°00'0 0.0
2014-Nov-22 03:29N 53°23' W 003°00'0 0.0
2014-Nov-22 02:29N 53°23' W 003°00'0 0.0
2014-Nov-22 01:11N 53°23' W 003°00'0 0.0
2014-Nov-22 00:22N 53°23' W 003°00'0 0.0
2014-Nov-21 23:28N 53°23' W 003°00'4 3.6
2014-Nov-21 22:27N 53°20' W 002°57'4 3.8
2014-Nov-21 21:29N 53°23' W 003°00'0 0.0
2014-Nov-21 20:23N 53°23' W 003°00'0 0.0
2014-Nov-21 19:29N 53°23' W 003°00'0 0.0
2014-Nov-21 18:29N 53°23' W 003°00'0 0.0
2014-Nov-21 17:29N 53°23' W 003°00'0 0.0
2014-Nov-21 16:29N 53°23' W 003°00'0 0.0
2014-Nov-21 15:29N 53°23' W 003°00'0 0.0
2014-Nov-21 14:29N 53°23' W 003°00'0 0.0
2014-Nov-21 13:29N 53°23' W 003°00'0 0.0
2014-Nov-21 12:29N 53°23' W 003°00'0 0.3
2014-Nov-21 11:32N 53°23' W 002°60'0 0.2
2014-Nov-21 10:33N 53°23' W 002°60'4 3.5
2014-Nov-21 09:34N 53°26' W 003°01'9 4.1
2014-Nov-21 07:27N 53°31' W 003°13'7 8.1
2014-Nov-21 06:33N 53°27' W 003°02'5 4.7
2014-Nov-21 05:31N 53°23' W 002°60'0 0.1
2014-Nov-21 04:29N 53°23' W 002°60'0 0.0
2014-Nov-21 03:29N 53°23' W 002°60'0 0.0
2014-Nov-21 02:11N 53°23' W 002°60'0 0.0
2014-Nov-21 01:23N 53°23' W 002°60'0 0.0
2014-Nov-21 00:23N 53°23' W 002°60'0 0.0
2014-Nov-20 23:29N 53°23' W 002°60'0 0.0
2014-Nov-20 22:29N 53°23' W 002°60'0 0.0
2014-Nov-20 21:29N 53°23' W 002°60'0 0.0
2014-Nov-20 20:23N 53°23' W 002°60'0 0.0
2014-Nov-20 19:23N 53°23' W 002°60'0 0.0
2014-Nov-20 18:05N 53°23' W 002°60'0 0.0
2014-Nov-20 17:29N 53°23' W 002°60'0 0.0
2014-Nov-20 16:17N 53°23' W 002°60'0 0.0
2014-Nov-20 09:29N 53°23' W 002°60'0 0.0
2014-Nov-20 08:17N 53°23' W 002°60'0 0.0
2014-Nov-20 07:23N 53°23' W 002°60'0 0.0
2014-Nov-20 06:17N 53°23' W 002°60'0 0.0
2014-Nov-20 05:17N 53°23' W 002°60'0 0.0
2014-Nov-20 04:29N 53°23' W 002°60'0 0.0
2014-Nov-20 03:29N 53°23' W 002°60'0 0.0
2014-Nov-20 02:29N 53°23' W 002°60'0 0.0
2014-Nov-20 01:28N 53°23' W 002°60'0 0.0
2014-Nov-20 00:16N 53°23' W 002°60'0 0.0
2014-Nov-19 23:28N 53°23' W 002°60'0 0.0
2014-Nov-19 22:28N 53°23' W 002°60'0 0.3
2014-Nov-19 21:31N 53°23' W 003°00'2 1.7
2014-Nov-19 20:33N 53°25' W 003°01'9 9.0
2014-Nov-19 19:32N 53°32' W 003°10'0 0.3
2014-Nov-19 18:30N 53°32' W 003°11'8 8.8
2014-Nov-19 17:33N 53°26' W 003°01'3 2.6
2014-Nov-19 16:26N 53°23' W 002°60'0 0.0
2014-Nov-19 13:16N 53°23' W 002°60'1 0.9
2014-Nov-19 12:33N 53°23' W 003°00'1 0.3
2014-Nov-19 10:11N 53°23' W 002°60'0 0.0
2014-Nov-19 09:23N 53°23' W 002°60'0 0.0
2014-Nov-19 08:29N 53°23' W 002°60'0 0.0
2014-Nov-19 07:23N 53°23' W 002°60'0 0.0
2014-Nov-19 06:17N 53°23' W 002°60'0 0.0
2014-Nov-19 00:29N 53°23' W 002°60'0 0.0
2014-Nov-18 23:23N 53°23' W 002°60'0 0.0
2014-Nov-18 22:23N 53°23' W 002°60'0 0.0
2014-Nov-18 21:29N 53°23' W 002°60'0 0.0
2014-Nov-18 20:23N 53°23' W 002°60'0 0.0
2014-Nov-18 19:11N 53°23' W 002°60'0 0.0
2014-Nov-18 18:29N 53°23' W 002°60'0 0.0
2014-Nov-18 08:32N 53°23' W 003°00'5 5.0
2014-Nov-18 07:33N 53°28' W 003°03'9 8.7
2014-Nov-18 06:30N 53°31' W 003°17'2 2.4
2014-Nov-18 05:28N 53°31' W 003°13'8 8.6
2014-Nov-18 04:33N 53°27' W 003°02'4 3.2
2014-Nov-18 03:13N 53°23' W 002°60'0 0.0
2014-Nov-17 23:29N 53°23' W 002°60'0 0.0
2014-Nov-16 19:16N 53°23' W 002°60'1 0.8
2014-Nov-16 18:25N 53°23' W 003°00'6 7.2
2014-Nov-16 17:33N 53°29' W 003°05'8 8.1
2014-Nov-16 16:31N 53°31' W 003°18'6 6.7
2014-Nov-16 15:33N 53°31' W 003°07'6 5.6
2014-Nov-16 14:24N 53°26' W 003°01'1 1.1
2014-Nov-16 13:31N 53°25' W 003°00'0 0.0
2014-Nov-16 12:31N 53°25' W 003°00'0 0.0
2014-Nov-16 11:25N 53°25' W 003°00'0 0.0
2014-Nov-16 10:25N 53°25' W 003°00'0 0.0
2014-Nov-16 09:31N 53°25' W 003°00'0 0.0
2014-Nov-16 08:30N 53°25' W 003°00'0 0.0
2014-Nov-16 07:24N 53°25' W 003°00'0 0.0
2014-Nov-16 06:30N 53°25' W 003°00'0 0.0
2014-Nov-16 05:30N 53°25' W 003°00'0 0.0
2014-Nov-16 04:30N 53°25' W 003°00'0 0.0
2014-Nov-16 03:30N 53°25' W 003°00'0 0.0
2014-Nov-16 02:30N 53°25' W 003°00'0 0.0
2014-Nov-16 01:30N 53°25' W 003°00'0 0.0
2014-Nov-16 00:30N 53°25' W 003°00'0 0.0
2014-Nov-15 23:30N 53°25' W 003°00'0 0.0
2014-Nov-15 22:24N 53°25' W 003°00'0 0.0
2014-Nov-15 21:30N 53°25' W 003°00'0 0.0
2014-Nov-15 20:30N 53°25' W 003°00'0 0.0
2014-Nov-15 19:30N 53°25' W 003°00'0 0.0
2014-Nov-15 18:30N 53°25' W 003°00'0 0.0
2014-Nov-15 17:24N 53°25' W 003°00'0 0.0
2014-Nov-15 16:24N 53°25' W 003°00'0 0.0
2014-Nov-15 15:30N 53°25' W 003°00'0 0.0
2014-Nov-15 14:30N 53°25' W 003°00'0 0.0
2014-Nov-15 13:30N 53°25' W 003°00'0 0.0
2014-Nov-15 12:30N 53°25' W 003°00'0 0.0
2014-Nov-15 11:30N 53°25' W 003°00'0 0.0
2014-Nov-15 10:30N 53°25' W 003°00'0 0.0
2014-Nov-15 09:30N 53°25' W 003°00'0 0.0
2014-Nov-15 08:24N 53°25' W 003°00'0 0.0
2014-Nov-15 07:30N 53°25' W 003°00'0 0.0
2014-Nov-15 06:30N 53°25' W 003°00'0 0.0
2014-Nov-15 05:30N 53°25' W 003°00'0 0.0
2014-Nov-15 04:30N 53°25' W 003°00'0 0.0
2014-Nov-15 03:30N 53°25' W 003°00'0 0.0
2014-Nov-15 02:30N 53°25' W 003°00'0 0.0
2014-Nov-15 01:30N 53°25' W 003°00'0 0.0
2014-Nov-15 00:30N 53°25' W 003°00'0 0.0
2014-Nov-14 23:29N 53°25' W 003°00'0 0.0
2014-Nov-14 22:29N 53°25' W 003°00'0 0.0
2014-Nov-14 21:29N 53°25' W 003°00'0 0.0
2014-Nov-14 20:29N 53°25' W 003°00'0 0.0
2014-Nov-14 19:29N 53°25' W 003°00'0 0.0
2014-Nov-14 18:29N 53°25' W 003°00'0 0.0
2014-Nov-14 17:29N 53°25' W 003°00'0 0.0
2014-Nov-14 16:23N 53°25' W 003°00'0 0.0
2014-Nov-14 15:31N 53°25' W 003°00'  

Dump ship's entire track history